Main page
METAR-TAF:

METAR-TAF

Airports :

Toblach, Italy

latitude: 46-44N, longitude: 012-13E, elevation: 1222 m

Current weather observation

The report was made 1 hour and 10 minutes ago, at 14:55 UTC
Wind 8 kt from the East
Temperature 12°C
Humidity 71%
Pressure 1023 hPa
Visibility 10 km or more
Few clouds at a height of 2500 ft

METAR: LIVD 261455Z 10008KT 9999 FEW025 12/07 Q1023 RMK BKN SCT070 VIS MIN 9999

Time: 18:05 (16:05 UTC)


TAF: missing

Weather observations and forecasts of more than 4000 airports (METAR and TAF reports).

The available stations are represented by yellow and red dots on the map.

Hover mouse over dot to see the name of the station.

Then click to see weather observations and forecasts.

To change the map : click on the green buttons with a black cross to zoom in, on the green button with a dash to zoom out, or on the green arrows for adjacent maps.


METAR-TAF: